createdAt,value
2023-03-22T00:02:26.599Z,64.61
2023-03-22T00:04:54.804Z,64.81
2023-03-22T00:07:22.967Z,65.66
2023-03-22T00:09:51.347Z,64.03
2023-03-22T00:12:19.624Z,66.43
2023-03-22T00:14:49.080Z,65.74
2023-03-22T00:17:17.456Z,64.51
2023-03-22T00:19:45.510Z,64.36
2023-03-22T00:22:15.024Z,64.75
2023-03-22T00:24:43.024Z,65.56
2023-03-22T00:27:11.782Z,65.80
2023-03-22T00:29:39.676Z,64.77
2023-03-22T00:32:08.025Z,64.96
2023-03-22T00:34:36.531Z,65.23
2023-03-22T00:37:04.855Z,66.14
2023-03-22T00:39:32.971Z,65.66
2023-03-22T00:42:01.520Z,66.77
2023-03-22T00:44:29.473Z,66.41
2023-03-22T00:46:57.967Z,66.10
2023-03-22T00:49:26.146Z,66.24
2023-03-22T00:51:55.223Z,67.20
2023-03-22T00:54:23.428Z,66.54
2023-03-22T00:56:51.692Z,66.30
2023-03-22T00:59:19.749Z,66.59
2023-03-22T01:01:48.306Z,66.50
2023-03-22T01:04:18.403Z,66.77
2023-03-22T01:06:47.527Z,66.73
2023-03-22T01:09:15.770Z,67.94
2023-03-22T01:11:45.683Z,67.66
2023-03-22T01:14:14.244Z,67.00
2023-03-22T01:16:42.696Z,66.95
2023-03-22T01:19:11.070Z,66.70
2023-03-22T01:21:40.176Z,67.11
2023-03-22T01:24:08.406Z,66.91
2023-03-22T01:26:36.783Z,67.88
2023-03-22T01:29:05.606Z,67.21
2023-03-22T01:31:33.794Z,67.47
2023-03-22T01:34:20.230Z,67.87
2023-03-22T01:36:50.513Z,67.63
2023-03-22T01:39:19.160Z,67.60
2023-03-22T01:41:50.269Z,68.36
2023-03-22T01:44:21.975Z,68.58
2023-03-22T01:46:52.770Z,68.76
2023-03-22T01:49:29.902Z,68.45
2023-03-22T01:52:04.063Z,68.94
2023-03-22T01:54:57.271Z,68.21
2023-03-22T01:57:53.558Z,67.15
2023-03-22T02:00:33.003Z,67.53
2023-03-22T02:03:26.239Z,68.40
2023-03-22T02:05:54.799Z,68.93
2023-03-22T02:08:25.626Z,68.51
2023-03-22T02:11:13.004Z,69.22
2023-03-22T02:13:48.268Z,69.23
2023-03-22T02:16:52.243Z,68.52
2023-03-22T02:19:42.663Z,68.93
2023-03-22T02:22:30.996Z,69.81
2023-03-22T02:25:15.786Z,69.96
2023-03-22T02:28:11.287Z,69.51
2023-03-22T02:31:15.008Z,69.84
2023-03-22T02:34:07.940Z,70.03
2023-03-22T02:37:02.074Z,69.81
2023-03-22T02:39:45.387Z,69.87
2023-03-22T02:42:22.317Z,70.81
2023-03-22T02:44:59.456Z,70.42
2023-03-22T02:47:42.506Z,70.60
2023-03-22T02:50:13.334Z,70.64
2023-03-22T02:52:54.260Z,71.22
2023-03-22T02:55:32.237Z,70.38
2023-03-22T02:58:12.583Z,70.31
2023-03-22T03:00:42.415Z,70.81
2023-03-22T03:03:18.627Z,70.67
2023-03-22T03:05:53.204Z,70.82
2023-03-22T03:08:24.214Z,70.90
2023-03-22T03:10:54.037Z,71.10
2023-03-22T03:13:54.479Z,70.36
2023-03-22T03:16:40.673Z,70.30
2023-03-22T03:23:33.662Z,68.13
2023-03-22T03:27:04.363Z,67.91
2023-03-22T03:30:15.245Z,67.68
2023-03-22T03:33:54.854Z,67.62
2023-03-22T03:36:38.544Z,68.17
2023-03-22T03:39:12.300Z,68.11
2023-03-22T03:41:43.301Z,68.29
2023-03-22T03:44:13.227Z,67.75
2023-03-22T03:46:42.383Z,67.73
2023-03-22T03:49:13.209Z,67.66
2023-03-22T03:51:55.239Z,67.72
2023-03-22T03:54:29.020Z,67.51
2023-03-22T03:57:04.078Z,67.65
2023-03-22T03:59:32.771Z,67.21
2023-03-22T04:02:06.171Z,66.85
2023-03-22T04:04:35.909Z,66.93
2023-03-22T04:07:06.464Z,67.41
2023-03-22T04:10:04.409Z,67.61
2023-03-22T04:13:40.875Z,67.26
2023-03-22T04:16:20.249Z,67.32
2023-03-22T04:21:56.339Z,66.99
2023-03-22T04:24:41.802Z,67.13
2023-03-22T04:27:31.866Z,66.67
2023-03-22T04:30:26.130Z,66.38
2023-03-22T04:33:43.528Z,66.43
2023-03-22T04:39:56.937Z,65.83
2023-03-22T04:43:07.101Z,65.57
2023-03-22T04:46:25.506Z,65.54
2023-03-22T04:49:14.301Z,65.02
2023-03-22T04:56:36.844Z,65.20
2023-03-22T04:59:36.981Z,65.29
2023-03-22T05:02:18.337Z,65.08
2023-03-22T05:05:31.378Z,65.02
2023-03-22T05:08:52.267Z,65.05
2023-03-22T05:11:37.635Z,64.83
2023-03-22T05:15:27.242Z,64.65
2023-03-22T05:21:21.781Z,64.53
2023-03-22T05:24:43.177Z,63.98
2023-03-22T05:28:01.018Z,63.73
2023-03-22T05:31:27.316Z,63.92
2023-03-22T05:34:41.715Z,63.84
2023-03-22T05:37:46.501Z,63.25
2023-03-22T05:40:33.891Z,62.86
2023-03-22T05:43:25.300Z,62.62
2023-03-22T05:46:24.323Z,62.08
2023-03-22T05:49:34.832Z,62.38
2023-03-22T05:52:21.457Z,61.71
2023-03-22T05:55:25.972Z,62.07
2023-03-22T05:57:59.371Z,61.69
2023-03-22T06:00:32.355Z,62.27
2023-03-22T06:03:19.146Z,62.11
2023-03-22T06:05:55.306Z,61.63
2023-03-22T06:08:35.370Z,61.41
2023-03-22T06:11:03.834Z,61.41
2023-03-22T06:13:32.394Z,60.45
2023-03-22T06:16:05.208Z,60.92
2023-03-22T06:18:33.783Z,60.58
2023-03-22T06:21:09.701Z,60.09
2023-03-22T06:23:39.074Z,59.51
2023-03-22T06:26:09.814Z,60.34
2023-03-22T06:28:38.602Z,59.19
2023-03-22T06:31:09.242Z,59.33
2023-03-22T06:34:09.707Z,59.76
2023-03-22T06:36:42.629Z,58.73
2023-03-22T06:39:33.810Z,58.09
2023-03-22T06:42:02.124Z,58.01
2023-03-22T06:44:30.525Z,58.39
2023-03-22T06:47:28.055Z,58.08
2023-03-22T06:50:13.186Z,58.07
2023-03-22T06:53:01.030Z,57.72
2023-03-22T06:55:33.476Z,57.52
2023-03-22T06:58:06.970Z,57.49
2023-03-22T07:00:35.475Z,57.76
2023-03-22T07:03:03.715Z,57.19
2023-03-22T07:05:40.379Z,57.15
2023-03-22T07:08:08.630Z,56.35
2023-03-22T07:10:42.768Z,56.43
2023-03-22T07:13:10.818Z,55.37
2023-03-22T07:15:39.686Z,55.64
2023-03-22T07:18:18.700Z,56.25
2023-03-22T07:20:46.948Z,56.02
2023-03-22T07:23:15.807Z,55.28
2023-03-22T07:25:50.195Z,55.86
2023-03-22T07:28:26.963Z,56.02
2023-03-22T07:31:05.621Z,55.92
2023-03-22T07:33:52.532Z,55.25
2023-03-22T07:36:24.113Z,55.36
2023-03-22T07:38:53.072Z,55.27
2023-03-22T07:41:31.016Z,55.25
2023-03-22T07:44:18.525Z,55.73
2023-03-22T07:47:06.598Z,55.11
2023-03-22T07:49:44.952Z,54.55
2023-03-22T07:52:22.716Z,54.42
2023-03-22T07:54:58.755Z,54.76
2023-03-22T07:57:32.144Z,54.69
2023-03-22T08:00:26.852Z,54.32
2023-03-22T08:03:17.338Z,54.17
2023-03-22T08:06:09.940Z,54.60
2023-03-22T08:08:47.278Z,54.33
2023-03-22T08:11:22.807Z,54.79
2023-03-22T08:13:59.252Z,54.77
2023-03-22T08:16:37.743Z,54.80
2023-03-22T08:19:07.089Z,54.95
2023-03-22T08:22:09.169Z,55.08
2023-03-22T08:25:08.715Z,54.16
2023-03-22T08:27:40.706Z,54.75
2023-03-22T08:30:20.960Z,54.93
2023-03-22T08:32:57.555Z,54.89
2023-03-22T08:35:30.052Z,55.73
2023-03-22T08:37:59.976Z,54.54
2023-03-22T08:40:41.373Z,55.10
2023-03-22T08:43:09.505Z,54.80
2023-03-22T08:45:42.690Z,54.81
2023-03-22T08:48:16.785Z,54.86
2023-03-22T08:51:34.024Z,54.56
2023-03-22T08:54:59.567Z,54.30
2023-03-22T08:58:14.473Z,53.92
2023-03-22T09:01:24.517Z,53.20
2023-03-22T09:04:00.781Z,52.86
2023-03-22T09:06:31.471Z,52.82
2023-03-22T09:09:00.457Z,52.51
2023-03-22T09:11:29.369Z,52.73
2023-03-22T09:13:58.389Z,52.09
2023-03-22T09:16:26.381Z,52.53
2023-03-22T09:18:56.555Z,51.83
2023-03-22T09:21:24.588Z,52.13
2023-03-22T09:24:11.185Z,51.60
2023-03-22T09:26:47.143Z,51.14
2023-03-22T09:29:20.007Z,50.69
2023-03-22T09:31:53.064Z,51.50
2023-03-22T09:34:25.217Z,50.72
2023-03-22T09:36:53.443Z,50.56
2023-03-22T09:39:26.186Z,50.49
2023-03-22T09:42:02.092Z,49.64
2023-03-22T09:44:51.427Z,49.86
2023-03-22T09:47:44.423Z,49.70
2023-03-22T09:50:21.216Z,49.84
2023-03-22T09:52:50.002Z,49.66
2023-03-22T09:55:44.286Z,49.57
2023-03-22T09:58:22.130Z,49.89
2023-03-22T10:01:19.617Z,49.02
2023-03-22T10:04:00.564Z,49.02
2023-03-22T10:06:31.369Z,48.57
2023-03-22T10:09:11.930Z,47.61
2023-03-22T10:11:55.081Z,46.98
2023-03-22T10:14:42.884Z,46.64
2023-03-22T10:17:25.779Z,45.61
2023-03-22T10:20:10.363Z,44.89
2023-03-22T10:22:42.362Z,45.01
2023-03-22T10:25:17.791Z,45.02
2023-03-22T10:27:50.085Z,43.44
2023-03-22T10:30:24.974Z,43.97
2023-03-22T10:33:20.741Z,43.41
2023-03-22T10:35:49.896Z,42.00
2023-03-22T10:38:29.506Z,42.27
2023-03-22T10:40:59.923Z,42.10
2023-03-22T10:43:35.232Z,42.62
2023-03-22T10:46:15.452Z,42.21
2023-03-22T10:48:46.445Z,43.08
2023-03-22T10:51:33.424Z,42.62
2023-03-22T10:54:03.648Z,42.35
2023-03-22T10:56:32.277Z,43.13
2023-03-22T10:59:00.767Z,44.08
2023-03-22T11:01:37.128Z,42.99
2023-03-22T11:04:10.822Z,41.62
2023-03-22T11:06:54.592Z,40.55
2023-03-22T11:09:25.017Z,41.42
2023-03-22T11:11:58.996Z,41.36
2023-03-22T11:14:48.008Z,42.52
2023-03-22T11:17:23.005Z,42.96
2023-03-22T11:19:59.077Z,44.21
2023-03-22T11:22:46.336Z,43.81
2023-03-22T11:25:20.849Z,42.20
2023-03-22T11:27:56.452Z,41.59
2023-03-22T11:30:26.760Z,42.16
2023-03-22T11:33:15.120Z,41.79
2023-03-22T11:35:47.593Z,40.28
2023-03-22T11:38:25.933Z,42.46
2023-03-22T11:41:01.809Z,43.09
2023-03-22T11:43:44.419Z,41.69
2023-03-22T11:46:13.508Z,42.96
2023-03-22T11:48:42.723Z,44.10
2023-03-22T11:51:14.465Z,43.52
2023-03-22T11:53:47.386Z,42.62
2023-03-22T11:56:26.369Z,43.12
2023-03-22T11:58:59.783Z,42.43
2023-03-22T12:01:46.203Z,41.26
2023-03-22T12:04:20.542Z,41.47
2023-03-22T12:06:54.167Z,42.39
2023-03-22T12:09:43.654Z,42.35
2023-03-22T12:12:30.843Z,40.70
2023-03-22T12:15:08.058Z,41.32
2023-03-22T12:17:42.898Z,41.40
2023-03-22T12:20:19.945Z,41.68
2023-03-22T12:22:53.634Z,41.74
2023-03-22T12:25:27.326Z,41.51
2023-03-22T12:27:59.911Z,41.89
2023-03-22T12:30:31.997Z,41.82
2023-03-22T12:33:26.244Z,42.07
2023-03-22T12:36:01.007Z,41.11
2023-03-22T12:38:43.378Z,41.90
2023-03-22T12:41:15.837Z,41.00
2023-03-22T12:44:10.000Z,41.91
2023-03-22T12:46:53.010Z,41.69
2023-03-22T12:49:32.806Z,41.58
2023-03-22T12:52:19.703Z,40.79
2023-03-22T12:54:50.706Z,41.21
2023-03-22T12:57:19.597Z,41.00
2023-03-22T12:59:52.494Z,41.52
2023-03-22T13:02:31.445Z,41.77
2023-03-22T13:05:03.236Z,42.07
2023-03-22T13:07:48.025Z,42.29
2023-03-22T13:10:32.059Z,42.61
2023-03-22T13:13:08.965Z,42.98
2023-03-22T13:15:42.714Z,42.97
2023-03-22T13:18:36.556Z,42.94
2023-03-22T13:21:24.567Z,43.14
2023-03-22T13:24:15.534Z,43.09
2023-03-22T13:26:51.855Z,43.31
2023-03-22T13:29:26.089Z,43.07
2023-03-22T13:32:07.343Z,42.42
2023-03-22T13:34:38.603Z,42.68
2023-03-22T13:37:46.268Z,42.47
2023-03-22T13:40:37.003Z,42.58
2023-03-22T13:43:29.072Z,42.41
2023-03-22T13:46:18.088Z,42.82
2023-03-22T13:48:52.884Z,41.88
2023-03-22T13:51:25.651Z,41.97
2023-03-22T13:54:24.582Z,42.30
2023-03-22T13:57:01.086Z,41.97
2023-03-22T13:59:31.320Z,41.95
2023-03-22T14:02:08.638Z,42.33
2023-03-22T14:04:45.163Z,42.08
2023-03-22T14:07:31.802Z,42.44
2023-03-22T14:10:04.056Z,43.21
2023-03-22T14:13:04.418Z,42.79
2023-03-22T14:15:41.865Z,43.34
2023-03-22T14:18:27.410Z,43.07
2023-03-22T14:21:09.636Z,43.01
